createdAt,value
2018-11-13T00:02:14.623Z,2803.74
2018-11-13T00:13:14.583Z,2803.74
2018-11-13T00:24:16.775Z,2803.74
2018-11-13T00:35:17.126Z,2803.74
2018-11-13T00:46:16.815Z,1018.59
2018-11-13T00:57:19.495Z,1018.59
2018-11-13T01:08:22.323Z,1018.59
2018-11-13T01:19:23.467Z,1018.59
2018-11-13T01:30:26.504Z,2803.74
2018-11-13T01:41:29.976Z,2803.74
2018-11-13T01:52:34.265Z,2803.74
2018-11-13T02:03:33.924Z,2803.74
2018-11-13T02:14:37.227Z,2803.74
2018-11-13T02:25:36.632Z,1018.59
2018-11-13T02:36:39.553Z,2803.74
2018-11-13T02:47:41.109Z,2803.74
2018-11-13T02:58:41.929Z,2803.74
2018-11-13T03:09:39.472Z,2803.74
2018-11-13T03:20:42.575Z,2803.74
2018-11-13T03:31:44.235Z,2803.74
2018-11-13T03:42:47.464Z,2803.74
2018-11-13T03:53:48.016Z,2803.74
2018-11-13T04:04:48.653Z,2803.74
2018-11-13T04:15:50.248Z,2803.74
2018-11-13T04:26:47.644Z,2803.74
2018-11-13T04:37:50.642Z,2803.74
2018-11-13T04:48:50.385Z,2803.74
2018-11-13T04:59:53.756Z,2803.74
2018-11-13T05:10:56.317Z,1018.59
2018-11-13T05:21:58.921Z,2803.74
2018-11-13T05:32:58.206Z,2803.74
2018-11-13T05:44:00.893Z,2803.74
2018-11-13T05:54:53.931Z,2803.74
2018-11-13T06:05:53.207Z,2803.74
2018-11-13T06:16:51.774Z,1018.59
2018-11-13T06:27:54.653Z,2803.74
2018-11-13T06:38:59.038Z,2803.74
2018-11-13T06:50:01.544Z,2803.74
2018-11-13T07:01:00.720Z,2803.74
2018-11-13T07:12:01.512Z,2803.74
2018-11-13T07:23:06.870Z,2803.74
2018-11-13T07:34:06.920Z,2803.74
2018-11-13T07:45:07.937Z,2803.74
2018-11-13T07:56:13.048Z,2803.74
2018-11-13T08:07:18.772Z,2803.74
2018-11-13T08:18:21.334Z,2803.74
2018-11-13T08:29:18.087Z,1498.61
2018-11-13T08:40:19.878Z,2803.74
2018-11-13T08:51:21.835Z,2803.74
2018-11-13T09:02:23.166Z,2803.74
2018-11-13T09:13:26.239Z,2803.74
2018-11-13T09:24:31.096Z,2803.74
2018-11-13T09:35:31.153Z,2803.74
2018-11-13T09:46:29.183Z,2803.74
2018-11-13T09:57:29.655Z,1018.59
2018-11-13T10:08:28.554Z,1018.59
2018-11-13T10:19:29.548Z,1018.59
2018-11-13T10:30:30.675Z,1018.59
2018-11-13T10:41:32.019Z,1018.59
2018-11-13T10:52:34.544Z,1018.59
2018-11-13T11:03:36.028Z,1018.59
2018-11-13T11:14:37.409Z,1019.64
2018-11-13T11:25:36.921Z,1019.64
2018-11-13T11:36:37.863Z,1019.64
2018-11-13T11:47:36.360Z,1019.64
2018-11-13T11:58:36.660Z,1019.64
2018-11-13T12:09:37.534Z,1019.64
2018-11-13T12:20:38.574Z,1019.64
2018-11-13T12:31:39.638Z,1019.64
2018-11-13T12:42:41.019Z,1019.64
2018-11-13T12:53:42.573Z,1019.64
2018-11-13T13:04:42.351Z,1019.64
2018-11-13T13:15:30.282Z,1019.64
2018-11-13T13:26:30.920Z,1020.68
2018-11-13T13:37:31.264Z,1020.68
2018-11-13T13:48:30.267Z,1020.68
2018-11-13T13:59:30.240Z,1020.68
2018-11-13T14:10:29.161Z,1020.68
2018-11-13T14:21:27.727Z,1020.68
2018-11-13T14:32:29.255Z,1020.68
2018-11-13T14:43:29.787Z,1020.68
2018-11-13T14:54:30.276Z,1020.68
2018-11-13T15:05:29.723Z,1021.73
2018-11-13T15:16:30.759Z,1021.73
2018-11-13T15:27:30.005Z,1021.73
2018-11-13T15:38:30.565Z,1021.73
2018-11-13T15:49:31.873Z,1021.73
2018-11-13T16:00:32.060Z,1021.73
2018-11-13T16:11:32.061Z,1021.73
2018-11-13T16:22:32.243Z,1021.73
2018-11-13T16:33:32.368Z,1022.77
2018-11-13T16:44:33.347Z,1022.77
2018-11-13T16:55:33.979Z,1022.77
2018-11-13T17:06:31.803Z,1022.77
2018-11-13T17:17:30.391Z,1022.77
2018-11-13T17:28:29.301Z,1022.77
2018-11-13T17:39:26.458Z,1022.77
2018-11-13T17:50:18.983Z,1022.77
2018-11-13T18:01:09.405Z,1022.77
2018-11-13T18:12:05.516Z,1022.77
2018-11-13T18:23:06.796Z,1022.77
2018-11-13T18:34:07.163Z,1023.82
2018-11-13T18:45:06.091Z,1023.82
2018-11-13T18:55:41.052Z,1023.82
2018-11-13T19:06:29.787Z,1023.82
2018-11-13T19:17:27.606Z,1023.82
2018-11-13T19:28:27.664Z,1023.82
2018-11-13T19:39:28.400Z,1023.82
2018-11-13T19:50:27.866Z,1023.82
2018-11-13T20:01:24.388Z,1023.82
2018-11-13T20:12:22.475Z,1023.82
2018-11-13T20:23:18.309Z,1023.82
2018-11-13T20:34:20.097Z,1024.87
2018-11-13T20:45:20.134Z,1024.87
2018-11-13T20:56:18.189Z,1024.87
2018-11-13T21:07:16.951Z,1024.87
2018-11-13T21:18:12.130Z,1024.87
2018-11-13T21:29:11.584Z,1024.87
2018-11-13T21:40:05.522Z,1024.87
2018-11-13T21:51:06.566Z,1024.87
2018-11-13T22:02:07.874Z,1024.87
2018-11-13T22:13:07.395Z,1024.87
2018-11-13T22:24:10.022Z,1024.87
2018-11-13T22:35:11.124Z,1024.87
2018-11-13T22:46:07.979Z,1024.87
2018-11-13T22:57:08.187Z,1024.87
2018-11-13T23:08:10.169Z,1024.87
2018-11-13T23:19:11.283Z,1024.87
2018-11-13T23:30:12.817Z,1024.87
2018-11-13T23:41:15.084Z,1024.87
2018-11-13T23:52:17.000Z,1024.87
